Time;durP1;ratioP1;P1;durP2;ratioP2;P2;SDS_P1;SDS_P2;PMS_P1;PMS_P2;Temp;Humidity;BMP_temperature;BMP_pressure;BME280_temperature;BME280_humidity;BME280_pressure;Samples;Min_cycle;Max_cycle;Signal;HPM_P1;HPM_P2
2022/06/01 00:02:21;;;;;;;7.28;4.13;;;;;;;13.24;59.22;100976.41;4933730;28;119380;-78
2022/06/01 00:04:47;;;;;;;8.60;4.30;;;;;;;13.19;59.99;100974.28;4954302;28;119790;-78
2022/06/01 00:07:12;;;;;;;5.70;3.97;;;;;;;13.20;59.93;100981.31;4954323;28;119487;-78
2022/06/01 00:09:39;;;;;;;5.22;4.07;;;;;;;13.15;60.39;100968.13;4935918;28;119624;-79
2022/06/01 00:12:05;;;;;;;5.88;4.20;;;;;;;13.20;60.84;100976.56;4935204;28;119423;-78
2022/06/01 00:14:33;;;;;;;7.53;4.50;;;;;;;13.19;60.88;100968.75;4952078;28;119351;-78
2022/06/01 00:16:58;;;;;;;5.95;4.03;;;;;;;13.20;60.61;100959.28;4902296;28;119542;-78
2022/06/01 00:19:24;;;;;;;6.05;4.72;;;;;;;13.25;60.62;100964.19;4954078;28;119373;-78
2022/06/01 00:24:37;;;;;;;;;;;;;;;13.24;60.44;100968.16;4936062;28;119899;-78
2022/06/01 00:27:03;;;;;;;7.90;3.75;;;;;;;13.25;60.49;100961.44;4922557;28;120975;-78
2022/06/01 00:29:29;;;;;;;8.02;4.30;;;;;;;13.25;60.43;100961.44;4921383;28;119557;-78
2022/06/01 00:31:55;;;;;;;6.95;4.60;;;;;;;13.26;60.48;100957.47;4946964;28;119744;-78
2022/06/01 00:34:20;;;;;;;5.78;3.97;;;;;;;13.31;60.91;100959.56;4920462;28;119565;-78
2022/06/01 00:36:46;;;;;;;5.50;4.20;;;;;;;13.28;60.84;100959.75;4937476;28;119347;-78
2022/06/01 00:39:12;;;;;;;6.30;4.60;;;;;;;13.30;61.16;100954.53;4937404;28;119968;-78
2022/06/01 00:41:37;;;;;;;6.13;4.43;;;;;;;13.27;61.28;100952.72;4932614;28;121806;-79
2022/06/01 00:44:03;;;;;;;5.40;3.92;;;;;;;13.18;60.99;100937.72;4952663;28;119313;-78
2022/06/01 00:46:30;;;;;;;5.03;4.50;;;;;;;13.26;61.33;100945.66;4953013;28;120452;-78
2022/06/01 00:49:01;;;;;;;6.07;4.35;;;;;;;13.31;61.09;100958.81;4953997;28;119200;-78
2022/06/01 00:51:29;;;;;;;5.50;4.07;;;;;;;13.29;60.73;100948.25;4954055;28;119518;-78
2022/06/01 00:53:56;;;;;;;7.30;4.07;;;;;;;13.23;60.23;100952.06;4936742;28;120578;-78
2022/06/01 00:56:27;;;;;;;7.22;4.35;;;;;;;13.25;60.69;100957.88;4936878;28;119608;-79
2022/06/01 00:58:56;;;;;;;7.60;3.90;;;;;;;13.23;60.45;100955.59;4950476;28;119339;-78
2022/06/01 01:01:23;;;;;;;5.05;3.85;;;;;;;13.22;60.58;100951.31;4946280;28;119375;-78
2022/06/01 01:03:55;;;;;;;6.43;4.20;;;;;;;13.23;61.09;100947.34;4937148;28;119775;-78
2022/06/01 01:06:27;;;;;;;5.43;3.95;;;;;;;13.16;60.84;100942.88;4956824;28;119269;-79
2022/06/01 01:08:54;;;;;;;5.40;3.90;;;;;;;13.23;60.99;100946.56;4921240;28;119310;-78
2022/06/01 01:11:25;;;;;;;6.53;3.75;;;;;;;13.26;60.84;100951.94;4954554;28;119824;-78
2022/06/01 01:13:53;;;;;;;5.18;3.95;;;;;;;13.25;61.38;100949.63;4952887;28;119364;-78
2022/06/01 01:16:20;;;;;;;6.57;4.38;;;;;;;13.26;61.52;100951.94;4937345;28;119739;-78
2022/06/01 01:18:47;;;;;;;5.32;4.47;;;;;;;13.25;61.81;100949.63;4937253;28;119387;-78
2022/06/01 01:21:31;;;;;;;5.18;4.20;;;;;;;13.30;61.66;100949.78;4920218;28;120187;-78
2022/06/01 01:24:08;;;;;;;7.53;4.55;;;;;;;13.26;61.39;100946.44;4941731;28;119742;-78
2022/06/01 01:26:34;;;;;;;6.78;4.68;;;;;;;13.22;62.06;100940.28;4934752;28;119327;-78
2022/06/01 01:29:09;;;;;;;7.35;4.55;;;;;;;13.30;62.17;100943.50;4951789;28;122182;-78
2022/06/01 01:31:35;;;;;;;6.38;4.70;;;;;;;13.32;62.12;100944.56;4929887;28;119472;-78
2022/06/01 01:34:01;;;;;;;4.90;4.15;;;;;;;13.34;62.24;100936.63;4946717;28;119893;-78
2022/06/01 01:36:34;;;;;;;8.95;4.75;;;;;;;13.35;62.21;100932.63;4954474;28;119952;-78
2022/06/01 01:39:19;;;;;;;7.95;4.40;;;;;;;13.42;62.41;100937.81;4938803;28;119582;-78
2022/06/01 01:41:51;;;;;;;6.07;4.55;;;;;;;13.44;62.36;100940.84;4935639;28;119269;-79
2022/06/01 01:44:41;;;;;;;6.20;4.38;;;;;;;13.47;62.28;100928.91;4949136;28;119630;-78
2022/06/01 01:47:08;;;;;;;7.78;5.25;;;;;;;13.47;62.26;100928.91;4935473;28;119594;-78
2022/06/01 01:49:36;;;;;;;6.32;4.95;;;;;;;13.51;62.28;100932.28;4953976;28;119805;-78
2022/06/01 01:52:13;;;;;;;7.65;5.05;;;;;;;13.51;62.50;100929.53;4941575;28;119300;-78
2022/06/01 01:54:57;;;;;;;5.80;4.47;;;;;;;13.56;62.15;100930.88;4953887;28;119195;-78
2022/06/01 01:57:53;;;;;;;6.80;4.55;;;;;;;13.56;61.91;100930.88;4923509;28;119667;-78
2022/06/01 02:00:25;;;;;;;5.90;4.32;;;;;;;13.54;61.90;100929.81;4924358;28;119834;-78
2022/06/01 02:03:02;;;;;;;6.65;4.72;;;;;;;13.60;62.33;100936.22;4951131;28;120070;-79
2022/06/01 02:08:28;;;;;;;6.13;4.88;;;;;;;13.58;62.43;100933.94;4936439;28;119393;-78
2022/06/01 02:13:48;;;;;;;6.93;5.25;;;;;;;13.63;63.01;100938.06;4940020;28;119662;-78
2022/06/01 02:16:14;;;;;;;17.23;15.40;;;;;;;13.63;63.00;100935.28;4936599;28;120527;-78
2022/06/01 02:18:46;;;;;;;17.48;15.13;;;;;;;13.64;62.78;100926.56;4921262;28;119162;-78
2022/06/01 02:21:19;;;;;;;10.82;9.32;;;;;;;13.70;62.83;100930.22;4952508;28;119722;-78
2022/06/01 02:23:47;;;;;;;8.18;6.25;;;;;;;13.72;62.78;100930.53;4927839;28;119652;-78
2022/06/01 02:26:33;;;;;;;7.53;6.35;;;;;;;13.70;61.80;100930.22;4938735;28;119275;-78
2022/06/01 02:29:06;;;;;;;7.43;5.70;;;;;;;13.67;62.29;100919.34;4914833;28;119791;-78
2022/06/01 02:31:34;;;;;;;9.35;7.63;;;;;;;13.64;62.01;100914.78;4948210;28;119612;-78
2022/06/01 02:34:01;;;;;;;11.85;8.27;;;;;;;13.66;62.33;100923.34;4953787;28;119751;-78
2022/06/01 02:36:28;;;;;;;10.75;9.20;;;;;;;13.66;62.17;100917.81;4951540;28;119597;-78
2022/06/01 02:38:55;;;;;;;10.73;7.95;;;;;;;13.57;62.35;100904.09;4959484;28;119304;-78
2022/06/01 02:44:05;;;;;;;9.43;5.72;;;;;;;13.64;62.75;100920.28;4945529;28;119688;-78
2022/06/01 02:46:31;;;;;;;8.50;6.20;;;;;;;13.71;62.28;100919.94;4933014;28;119785;-78
2022/06/01 02:49:06;;;;;;;12.73;8.40;;;;;;;13.71;62.39;100920.69;4933478;28;119515;-78
2022/06/01 02:51:32;;;;;;;11.25;8.70;;;;;;;13.68;62.51;100918.88;4931458;28;119882;-78
2022/06/01 02:53:57;;;;;;;9.95;7.07;;;;;;;13.70;62.40;100918.41;4948670;28;120011;-78
2022/06/01 02:56:24;;;;;;;10.63;7.43;;;;;;;13.66;62.47;100906.81;4929960;28;119736;-78
2022/06/01 02:58:51;;;;;;;10.07;7.97;;;;;;;13.72;62.46;100916.75;4929726;28;119443;-78
2022/06/01 03:01:17;;;;;;;10.32;7.55;;;;;;;13.72;62.38;100913.19;4944981;28;119522;-78
2022/06/01 03:03:42;;;;;;;11.60;7.53;;;;;;;13.73;62.72;100914.75;4932541;28;119252;-78
2022/06/01 03:06:08;;;;;;;8.55;7.25;;;;;;;13.73;62.41;100917.50;4946207;28;119363;-78
2022/06/01 03:08:34;;;;;;;9.85;6.13;;;;;;;13.73;62.46;100909.25;4939577;28;119197;-78
2022/06/01 03:11:00;;;;;;;9.05;6.78;;;;;;;13.74;62.43;100916.28;4916059;28;121788;-78
2022/06/01 03:13:26;;;;;;;8.48;6.38;;;;;;;13.67;62.97;100902.81;4933676;28;119245;-78
2022/06/01 03:15:53;;;;;;;9.15;6.03;;;;;;;13.77;62.99;100918.09;4940919;28;119362;-78
2022/06/01 03:18:20;;;;;;;9.27;6.68;;;;;;;13.76;62.73;100909.06;4953696;28;119249;-78
2022/06/01 03:20:46;;;;;;;8.02;5.93;;;;;;;13.72;62.83;100902.16;4938561;28;119596;-79
2022/06/01 03:23:12;;;;;;;10.93;7.97;;;;;;;13.79;62.98;100907.38;4928011;28;120111;-78
2022/06/01 03:25:38;;;;;;;10.95;8.10;;;;;;;13.80;62.53;100900.63;4948291;28;119505;-78
2022/06/01 03:28:05;;;;;;;12.02;8.50;;;;;;;13.81;63.01;100907.66;4953819;28;119735;-78
2022/06/01 03:30:34;;;;;;;15.25;8.75;;;;;;;13.79;62.97;100904.59;4929801;28;119405;-78
2022/06/01 03:33:00;;;;;;;12.77;8.23;;;;;;;13.83;62.49;100911.47;4948956;28;120112;-78
2022/06/01 03:35:29;;;;;;;11.10;8.13;;;;;;;13.84;62.09;100906.72;4920643;28;119915;-78
2022/06/01 03:37:57;;;;;;;13.88;10.15;;;;;;;13.77;62.99;100896.81;4953056;28;119885;-78
2022/06/01 03:40:25;;;;;;;13.15;9.15;;;;;;;13.84;63.52;100901.22;4952210;28;119513;-78
2022/06/01 03:42:51;;;;;;;13.30;9.00;;;;;;;13.88;63.18;100906.53;4938365;28;119527;-78
2022/06/01 03:48:08;;;;;;;11.93;8.90;;;;;;;13.95;63.52;100906.97;4952006;28;119621;-78
2022/06/01 03:50:35;;;;;;;13.60;8.73;;;;;;;14.01;63.74;100910.63;4952259;28;119267;-78
2022/06/01 03:53:02;;;;;;;11.48;8.25;;;;;;;13.98;63.60;100906.03;4936419;28;119419;-78
2022/06/01 03:55:29;;;;;;;11.73;8.15;;;;;;;14.01;63.61;100898.84;4935553;28;119570;-78
2022/06/01 03:57:55;;;;;;;11.82;8.70;;;;;;;14.05;63.84;100907.69;4953301;28;119303;-78
2022/06/01 04:00:25;;;;;;;12.50;9.00;;;;;;;14.12;63.53;100916.38;4935519;28;119382;-78
2022/06/01 04:02:51;;;;;;;16.33;9.38;;;;;;;14.14;63.84;100913.91;4952550;28;119577;-78
2022/06/01 04:05:18;;;;;;;12.45;9.23;;;;;;;14.19;63.72;100914.47;4907076;28;119747;-78
2022/06/01 04:07:44;;;;;;;15.35;9.45;;;;;;;14.24;63.61;100911.09;4952643;28;119476;-78
2022/06/01 04:10:11;;;;;;;11.95;8.48;;;;;;;14.29;63.90;100913.22;4930194;28;119454;-78
2022/06/01 04:12:37;;;;;;;11.00;7.78;;;;;;;14.29;63.18;100910.44;4953113;28;119542;-79
2022/06/01 04:15:05;;;;;;;13.27;8.70;;;;;;;14.31;63.26;100907.97;4952137;28;119327;-78
2022/06/01 04:17:30;;;;;;;11.52;8.32;;;;;;;14.28;63.18;100904.16;4902864;28;120557;-78
2022/06/01 04:19:56;;;;;;;13.65;8.68;;;;;;;14.30;63.44;100907.22;4953683;28;119261;-78
2022/06/01 04:22:22;;;;;;;13.30;7.85;;;;;;;14.26;63.11;100897.59;4935048;28;120191;-78
2022/06/01 04:24:48;;;;;;;9.88;7.70;;;;;;;14.28;63.04;100897.88;4917810;28;120835;-78
2022/06/01 04:27:13;;;;;;;10.35;8.20;;;;;;;14.32;63.48;100887.44;4923401;28;118884;-79
2022/06/01 04:29:42;;;;;;;10.98;7.95;;;;;;;14.36;63.68;100899.81;4956610;28;119656;-78
2022/06/01 04:32:12;;;;;;;12.25;8.35;;;;;;;14.37;63.59;100897.81;4945928;28;119744;-78
2022/06/01 04:34:38;;;;;;;11.35;9.10;;;;;;;14.39;63.92;100889.81;4950504;28;119745;-79
2022/06/01 04:37:04;;;;;;;11.82;9.13;;;;;;;14.44;63.73;100889.22;4938795;28;121365;-78
2022/06/01 04:39:30;;;;;;;12.05;9.50;;;;;;;14.48;63.83;100891.81;4922036;28;119335;-78
2022/06/01 04:41:56;;;;;;;13.95;9.82;;;;;;;14.56;64.25;100890.94;4954890;28;119927;-78
2022/06/01 04:44:21;;;;;;;15.20;9.95;;;;;;;14.61;64.31;100889.53;4938350;28;119992;-78
2022/06/01 04:46:47;;;;;;;12.10;10.15;;;;;;;14.69;64.46;100880.44;4958278;28;119649;-78
2022/06/01 04:49:13;;;;;;;15.82;10.20;;;;;;;14.83;64.76;100891.94;4938070;28;120042;-79
2022/06/01 04:51:39;;;;;;;15.90;10.98;;;;;;;14.91;64.80;100890.34;4957155;28;119647;-78
2022/06/01 04:54:07;;;;;;;12.77;10.25;;;;;;;15.08;65.09;100898.91;4956915;28;119762;-79
2022/06/01 04:56:33;;;;;;;14.57;10.50;;;;;;;15.19;65.06;100899.13;4955472;28;120150;-78
2022/06/01 04:58:59;;;;;;;13.05;9.57;;;;;;;15.26;64.26;100891.19;4938529;28;119586;-78
2022/06/01 05:01:25;;;;;;;14.00;10.40;;;;;;;15.35;64.56;100893.09;4939282;28;119485;-78
2022/06/01 05:03:50;;;;;;;14.10;9.32;;;;;;;15.46;64.25;100892.53;4954587;28;119550;-78
2022/06/01 05:06:16;;;;;;;13.80;9.60;;;;;;;15.48;63.69;100885.28;4921731;28;119445;-79
2022/06/01 05:08:42;;;;;;;14.50;9.68;;;;;;;15.63;63.71;100897.09;4941194;28;119844;-78
2022/06/01 05:11:08;;;;;;;10.15;8.82;;;;;;;15.64;63.91;100889.56;4955827;28;119405;-78
2022/06/01 05:13:34;;;;;;;13.07;9.50;;;;;;;15.78;63.80;100891.53;4938224;28;119404;-78
2022/06/01 05:16:01;;;;;;;12.65;9.45;;;;;;;15.85;63.41;100891.13;4932431;28;120369;-78
2022/06/01 05:18:27;;;;;;;13.30;8.82;;;;;;;15.92;63.48;100899.03;4919800;28;119711;-79
2022/06/01 05:20:54;;;;;;;11.52;8.38;;;;;;;15.94;63.22;100891.00;4921063;28;119466;-78
2022/06/01 05:23:21;;;;;;;12.38;8.98;;;;;;;16.03;63.13;100892.88;4949413;28;119589;-78
2022/06/01 05:25:48;;;;;;;12.90;8.77;;;;;;;16.08;62.89;100896.94;4937944;28;119180;-78
2022/06/01 05:28:18;;;;;;;12.60;8.50;;;;;;;16.13;62.52;100882.44;4920826;28;120096;-78
2022/06/01 05:30:43;;;;;;;11.25;8.60;;;;;;;16.15;62.95;100882.72;4939659;28;120856;-78
2022/06/01 05:33:09;;;;;;;12.50;8.18;;;;;;;16.25;62.66;100886.88;4954222;28;119408;-78
2022/06/01 05:35:35;;;;;;;11.35;8.48;;;;;;;16.28;62.20;100883.13;4953689;28;120344;-78
2022/06/01 05:38:01;;;;;;;11.02;8.30;;;;;;;16.32;62.15;100885.69;4937805;28;119387;-78
2022/06/01 05:40:30;;;;;;;11.35;7.70;;;;;;;16.36;61.78;100891.78;4956008;28;119325;-78
2022/06/01 05:42:59;;;;;;;11.07;7.78;;;;;;;16.40;61.92;100884.78;4936950;28;119468;-78
2022/06/01 05:45:26;;;;;;;12.00;7.60;;;;;;;16.45;61.92;100894.41;4939772;28;119407;-78
2022/06/01 05:47:52;;;;;;;10.52;7.40;;;;;;;16.42;62.10;100879.53;4954744;28;119903;-79
2022/06/01 05:50:18;;;;;;;11.75;7.50;;;;;;;16.55;62.33;100887.47;4937467;28;122394;-78
2022/06/01 05:52:44;;;;;;;10.70;7.68;;;;;;;16.65;61.90;100899.16;4959595;28;119241;-78
2022/06/01 05:55:12;;;;;;;11.68;7.18;;;;;;;16.66;61.49;100884.84;4950426;28;120114;-78
2022/06/01 05:57:38;;;;;;;11.00;7.15;;;;;;;16.74;61.58;100897.03;4955245;28;119463;-79
2022/06/01 06:00:06;;;;;;;11.73;7.28;;;;;;;16.76;61.33;100883.44;4932675;28;119343;-78
2022/06/01 06:02:40;;;;;;;9.30;6.53;;;;;;;16.87;61.87;100891.13;4947865;28;120096;-79
2022/06/01 06:07:51;;;;;;;10.45;6.45;;;;;;;16.89;61.73;100877.53;4936523;28;119239;-78
2022/06/01 06:10:17;;;;;;;9.88;6.43;;;;;;;17.05;61.06;100901.88;4921393;28;123047;-78
2022/06/01 06:12:43;;;;;;;13.15;6.22;;;;;;;17.05;61.03;100899.13;4954153;28;119710;-78
2022/06/01 06:15:09;;;;;;;8.13;6.40;;;;;;;17.10;61.27;100908.72;4942635;28;119640;-78
2022/06/01 06:17:35;;;;;;;9.90;6.28;;;;;;;17.10;60.81;100909.47;4951148;28;119894;-78
2022/06/01 06:20:01;;;;;;;11.52;6.15;;;;;;;17.13;61.39;100910.50;4964434;28;120603;-78
2022/06/01 06:22:26;;;;;;;10.63;6.72;;;;;;;17.12;60.91;100901.44;4952942;28;119594;-78
2022/06/01 06:24:52;;;;;;;8.73;6.10;;;;;;;17.17;59.90;100899.97;4957367;28;119571;-78
2022/06/01 06:27:18;;;;;;;9.27;6.22;;;;;;;17.25;60.48;100914.13;4974979;28;118939;-78
2022/06/01 06:29:43;;;;;;;12.80;6.70;;;;;;;17.27;59.73;100909.63;4936618;28;119942;-78
2022/06/01 06:32:09;;;;;;;10.15;6.05;;;;;;;17.39;60.21;100921.56;4949849;28;120096;-79
2022/06/01 06:34:35;;;;;;;10.15;6.97;;;;;;;17.45;59.83;100914.06;4956675;28;119472;-78
2022/06/01 06:37:00;;;;;;;10.85;7.10;;;;;;;17.52;59.56;100913.63;4935359;28;119451;-79
2022/06/01 06:39:26;;;;;;;9.80;6.22;;;;;;;17.51;59.27;100906.56;4955471;28;119805;-78
2022/06/01 06:41:51;;;;;;;9.15;6.22;;;;;;;17.55;59.03;100914.63;4954287;28;119830;-79
2022/06/01 06:44:17;;;;;;;7.80;6.00;;;;;;;17.63;59.59;100910.16;4937514;28;119414;-79
2022/06/01 06:46:44;;;;;;;11.05;6.75;;;;;;;17.71;59.77;100916.78;4941398;28;119887;-79
2022/06/01 06:49:09;;;;;;;8.20;6.32;;;;;;;17.72;58.59;100912.75;4925997;28;119548;-78
2022/06/01 06:51:36;;;;;;;9.88;6.15;;;;;;;17.80;58.56;100924.94;4961441;28;119772;-78
2022/06/01 06:54:02;;;;;;;8.85;5.80;;;;;;;17.83;58.69;100909.31;4970303;28;119462;-78
2022/06/01 06:56:28;;;;;;;10.00;5.90;;;;;;;17.79;58.16;100906.78;4963228;28;119501;-78
2022/06/01 06:58:54;;;;;;;7.78;5.60;;;;;;;17.82;58.17;100911.31;4950395;28;119431;-78
2022/06/01 07:01:19;;;;;;;7.72;5.65;;;;;;;17.88;58.54;100914.13;4944927;28;121119;-78
2022/06/01 07:03:45;;;;;;;7.68;5.80;;;;;;;17.93;58.74;100910.63;4967297;28;119732;-78
2022/06/01 07:06:17;;;;;;;9.55;5.85;;;;;;;17.94;58.41;100906.59;4961729;28;119706;-78
2022/06/01 07:08:48;;;;;;;8.07;5.97;;;;;;;17.99;58.22;100914.22;4957125;28;119620;-78
2022/06/01 07:11:16;;;;;;;6.88;5.18;;;;;;;18.02;58.79;100910.44;4956316;28;119847;-78
2022/06/01 07:13:42;;;;;;;11.27;6.32;;;;;;;18.05;58.34;100912.22;4952472;28;119450;-78
2022/06/01 07:16:11;;;;;;;7.05;5.50;;;;;;;18.16;59.05;100911.50;4915479;28;120626;-79
2022/06/01 07:18:39;;;;;;;7.85;6.18;;;;;;;18.11;57.68;100896.34;4957520;28;120225;-78
2022/06/01 07:21:05;;;;;;;8.73;5.28;;;;;;;18.16;57.82;100906.72;4953697;28;119599;-78
2022/06/01 07:23:31;;;;;;;9.95;5.88;;;;;;;18.25;59.33;100914.09;4948490;28;119965;-78
2022/06/01 07:25:57;;;;;;;7.70;5.38;;;;;;;18.29;59.17;100917.38;4958029;28;119733;-80
2022/06/01 07:28:23;;;;;;;8.23;5.50;;;;;;;18.32;58.23;100919.91;4943653;28;119685;-78
2022/06/01 07:30:58;;;;;;;6.53;5.15;;;;;;;18.29;58.32;100909.06;4940283;28;119869;-79
2022/06/01 07:33:28;;;;;;;8.55;5.97;;;;;;;18.31;58.19;100906.53;4946546;28;119362;-79
2022/06/01 07:35:56;;;;;;;7.60;5.55;;;;;;;18.33;58.88;100912.34;4957881;28;119437;-78
2022/06/01 07:43:56;;;;;;;8.25;5.95;;;;;;;18.50;57.50;100909.63;4944820;28;119418;-79
2022/06/01 07:46:21;;;;;;;7.53;5.38;;;;;;;18.54;57.56;100912.94;4932907;28;119579;-78
2022/06/01 07:48:49;;;;;;;8.63;5.30;;;;;;;18.58;56.63;100910.66;4931841;28;120068;-78
2022/06/01 07:51:16;;;;;;;8.25;5.65;;;;;;;18.63;57.05;100904.41;4962129;28;119448;-79
2022/06/01 07:53:42;;;;;;;6.95;5.30;;;;;;;18.61;55.65;100902.09;4942702;28;119946;-79
2022/06/01 07:56:09;;;;;;;7.35;4.63;;;;;;;18.64;55.67;100895.56;4951351;28;120354;-78
2022/06/01 07:58:36;;;;;;;5.88;4.90;;;;;;;18.69;54.96;100899.59;4940234;28;119597;-79
2022/06/01 08:01:02;;;;;;;5.70;4.28;;;;;;;18.69;54.30;100907.94;4965669;28;119717;-78
2022/06/01 08:03:28;;;;;;;6.40;4.45;;;;;;;18.67;55.45;100896.56;4965605;28;119557;-79
2022/06/01 08:05:54;;;;;;;8.90;4.85;;;;;;;18.75;56.42;100905.94;4925892;28;120010;-78
2022/06/01 08:08:20;;;;;;;7.75;4.65;;;;;;;18.78;57.13;100890.28;4910832;28;120637;-79
2022/06/01 08:10:46;;;;;;;6.80;5.03;;;;;;;18.85;56.22;100900.91;4941791;28;120731;-79
2022/06/01 08:13:14;;;;;;;8.98;4.93;;;;;;;18.85;54.44;100898.88;4943739;28;119875;-78
2022/06/01 08:15:48;;;;;;;6.30;4.78;;;;;;;18.75;54.36;100903.19;4946862;28;121207;-78
2022/06/01 08:18:17;;;;;;;7.35;4.70;;;;;;;18.72;54.63;100904.19;4939749;28;119771;-78
2022/06/01 08:20:43;;;;;;;7.25;5.22;;;;;;;18.68;54.20;100906.41;4972522;28;119627;-79
2022/06/01 08:23:09;;;;;;;8.73;5.20;;;;;;;18.58;53.95;100907.88;4968548;28;119682;-78
2022/06/01 08:25:36;;;;;;;7.50;4.70;;;;;;;18.51;54.59;100906.34;4959872;28;119633;-79
2022/06/01 08:28:03;;;;;;;7.88;4.72;;;;;;;18.38;55.21;100904.03;4958525;28;119389;-78
2022/06/01 08:30:31;;;;;;;12.32;7.10;;;;;;;18.31;57.04;100915.63;4975578;28;119486;-78
2022/06/01 08:32:58;;;;;;;11.00;8.10;;;;;;;18.11;58.32;100924.09;4950630;28;120033;-78
2022/06/01 08:35:28;;;;;;;19.15;9.02;;;;;;;17.76;59.28;100905.75;4953969;28;120224;-78
2022/06/01 08:37:55;;;;;;;17.45;9.45;;;;;;;17.60;59.90;100923.00;4937162;28;119628;-78
2022/06/01 08:40:30;;;;;;;19.27;10.25;;;;;;;17.42;60.78;100937.97;4937004;28;120631;-78
2022/06/01 08:43:03;;;;;;;24.75;10.63;;;;;;;17.18;59.64;100943.06;4935708;28;119503;-78
2022/06/01 08:45:29;;;;;;;30.75;8.00;;;;;;;16.76;56.97;100935.31;4940127;28;119525;-78
2022/06/01 08:47:56;;;;;;;23.02;8.10;;;;;;;16.26;57.61;100927.13;4918837;28;122017;-78
2022/06/01 08:50:31;;;;;;;17.05;8.75;;;;;;;15.80;59.13;100924.22;4948819;28;119543;-78
2022/06/01 08:53:00;;;;;;;46.05;10.40;;;;;;;15.46;59.30;100922.94;4916756;28;119423;-78
2022/06/01 08:55:34;;;;;;;23.48;10.52;;;;;;;15.14;60.27;100921.88;4937183;28;120526;-77
2022/06/01 08:58:15;;;;;;;241.57;30.20;;;;;;;14.84;61.73;100918.31;4941399;28;119514;-78
2022/06/01 09:00:59;;;;;;;649.08;67.07;;;;;;;14.66;62.98;100927.53;4943545;28;119524;-78
2022/06/01 09:03:50;;;;;;;633.92;66.40;;;;;;;14.51;63.66;100919.22;4912421;28;121143;-78
2022/06/01 09:06:26;;;;;;;313.45;41.13;;;;;;;14.44;64.43;100925.09;4944653;28;119912;-78
2022/06/01 09:09:01;;;;;;;449.83;63.20;;;;;;;14.35;65.28;100916.84;4949863;28;119556;-78
2022/06/01 09:11:33;;;;;;;187.60;35.70;;;;;;;14.30;65.63;100915.50;4929890;28;119477;-78
2022/06/01 09:14:14;;;;;;;141.05;31.13;;;;;;;14.35;66.53;100922.34;4913901;28;119655;-78
2022/06/01 09:16:46;;;;;;;220.10;39.17;;;;;;;14.39;67.03;100920.19;4946954;28;119922;-78
2022/06/01 09:19:27;;;;;;;55.33;24.35;;;;;;;14.43;67.60;100926.31;4946733;28;119555;-78
2022/06/01 09:24:54;;;;;;;53.80;20.92;;;;;;;14.46;68.36;100900.56;4928283;28;120951;-78
2022/06/01 09:27:38;;;;;;;29.60;16.45;;;;;;;14.63;68.05;100917.41;4942364;28;119433;-78
2022/06/01 09:30:18;;;;;;;87.50;27.17;;;;;;;14.72;69.00;100912.59;4944548;28;119602;-78
2022/06/01 09:33:20;;;;;;;38.75;21.55;;;;;;;14.89;69.34;100912.13;4948417;28;120076;-78
2022/06/01 09:36:03;;;;;;;23.42;16.80;;;;;;;15.11;69.74;100909.78;4913656;28;120485;-78
2022/06/01 09:38:49;;;;;;;30.75;19.02;;;;;;;15.36;70.14;100903.66;4926283;28;120691;-78
2022/06/01 09:41:21;;;;;;;26.60;16.67;;;;;;;15.62;70.57;100908.66;4925560;28;120181;-78
2022/06/01 09:43:50;;;;;;;22.20;12.95;;;;;;;15.84;70.68;100913.72;4925754;28;119916;-78
2022/06/01 09:46:48;;;;;;;26.23;15.27;;;;;;;16.08;70.67;100908.03;4925193;28;121952;-78
2022/06/01 09:49:24;;;;;;;15.48;10.95;;;;;;;16.30;69.88;100904.78;4946172;28;119512;-78
2022/06/01 09:52:18;;;;;;;13.68;9.50;;;;;;;16.41;69.44;100891.84;4924459;28;120122;-79
2022/06/01 09:54:52;;;;;;;13.38;8.80;;;;;;;16.55;68.58;100891.00;4943689;28;120583;-78
2022/06/01 09:57:24;;;;;;;10.73;7.68;;;;;;;16.72;67.88;100896.75;4947384;28;119489;-79
2022/06/01 10:08:20;;;;;;;16.50;10.98;;;;;;;17.01;66.86;100903.31;4941886;28;119414;-78
2022/06/01 10:11:05;;;;;;;13.98;10.73;;;;;;;17.08;67.82;100900.13;4944011;28;119380;-78
2022/06/01 10:13:47;;;;;;;17.23;8.77;;;;;;;17.12;66.07;100901.44;4944369;28;119623;-78
2022/06/01 10:16:50;;;;;;;18.50;10.15;;;;;;;17.21;66.88;100902.50;4947927;28;119877;-78
2022/06/01 10:19:22;;;;;;;11.20;8.00;;;;;;;17.22;65.83;100904.78;4944039;28;119531;-78
2022/06/01 10:21:57;;;;;;;10.77;8.85;;;;;;;17.29;66.74;100909.16;4942570;28;119889;-78
2022/06/01 10:24:30;;;;;;;12.48;8.63;;;;;;;17.30;66.43;100916.97;4946712;28;120031;-78
2022/06/01 10:26:59;;;;;;;11.05;7.55;;;;;;;17.27;65.36;100914.41;4931601;28;119584;-78
2022/06/01 10:29:39;;;;;;;9.70;8.18;;;;;;;17.20;66.05;100904.50;4943785;28;119785;-78
2022/06/01 10:32:28;;;;;;;11.95;7.95;;;;;;;17.21;66.60;100908.03;4943755;28;119894;-78
2022/06/01 10:35:16;;;;;;;18.80;10.73;;;;;;;17.22;67.36;100907.56;4953330;28;118704;-78
2022/06/01 10:38:01;;;;;;;13.18;8.68;;;;;;;17.23;67.59;100906.31;4944026;28;120850;-78
2022/06/01 10:40:49;;;;;;;10.02;7.35;;;;;;;17.27;67.34;100914.41;4951212;28;120179;-78
2022/06/01 10:43:21;;;;;;;10.48;8.43;;;;;;;17.36;67.58;100917.00;4949162;28;119840;-78
2022/06/01 10:45:50;;;;;;;5.43;4.43;;;;;;;17.38;65.55;100917.28;4952474;28;119028;-78
2022/06/01 10:48:44;;;;;;;6.40;3.63;;;;;;;17.33;64.27;100920.78;4941602;28;119537;-78
2022/06/01 10:51:15;;;;;;;6.82;3.20;;;;;;;17.19;61.57;100925.94;4956647;28;120102;-78
2022/06/01 10:53:58;;;;;;;4.63;2.78;;;;;;;17.06;61.23;100947.75;4935824;28;119945;-78
2022/06/01 10:56:24;;;;;;;6.95;4.10;;;;;;;16.92;59.13;100948.59;4955123;28;119557;-78
2022/06/01 10:58:52;;;;;;;7.45;4.40;;;;;;;16.75;59.31;100950.41;4923728;28;120745;-78
2022/06/01 11:01:51;;;;;;;10.02;5.45;;;;;;;16.67;60.92;100966.69;4934235;28;119980;-79
2022/06/01 11:05:01;;;;;;;11.00;6.55;;;;;;;16.39;60.36;100963.56;4930328;28;119975;-78
2022/06/01 11:07:33;;;;;;;14.35;8.90;;;;;;;16.11;62.38;100981.78;4941759;28;119606;-78
2022/06/01 11:10:38;;;;;;;17.08;10.25;;;;;;;15.90;63.55;100958.84;4901738;28;120635;-78
2022/06/01 11:13:27;;;;;;;11.52;9.77;;;;;;;15.65;64.00;100947.16;4916970;28;120903;-78
2022/06/01 11:16:09;;;;;;;56.83;17.42;;;;;;;15.46;65.59;100939.53;4952104;28;119766;-78
2022/06/01 11:19:02;;;;;;;41.80;16.30;;;;;;;15.43;67.08;100951.53;4932483;28;119408;-78
2022/06/01 11:21:59;;;;;;;18.20;10.85;;;;;;;15.38;67.38;100954.94;4940771;28;119353;-78
2022/06/01 11:24:38;;;;;;;21.38;13.73;;;;;;;15.35;67.97;100954.66;4951929;28;119383;-78
2022/06/01 11:27:08;;;;;;;15.32;12.27;;;;;;;15.39;68.48;100950.97;4934169;28;119981;-77
2022/06/01 11:29:49;;;;;;;55.88;20.75;;;;;;;15.49;69.26;100949.63;4934250;28;120899;-77
2022/06/01 11:32:19;;;;;;;62.63;23.45;;;;;;;15.58;70.04;100952.25;4929667;28;119685;-78
2022/06/01 11:35:08;;;;;;;104.35;29.33;;;;;;;15.69;70.41;100944.19;4949929;28;120090;-77
2022/06/01 11:37:58;;;;;;;42.33;23.30;;;;;;;15.82;71.14;100938.34;4945958;28;119546;-77
2022/06/01 11:40:58;;;;;;;52.22;26.88;;;;;;;16.02;71.37;100949.44;4929900;28;121579;-78
2022/06/01 11:43:38;;;;;;;43.85;22.27;;;;;;;16.19;71.11;100955.22;4912034;28;119696;-78
2022/06/01 11:46:36;;;;;;;57.95;24.58;;;;;;;16.33;70.93;100956.44;4948732;28;120217;-79
2022/06/01 11:49:10;;;;;;;25.80;15.93;;;;;;;16.41;69.26;100943.69;4928931;28;120459;-78
2022/06/01 11:51:38;;;;;;;39.00;18.60;;;;;;;16.47;69.40;100952.81;4933268;28;120529;-78
2022/06/01 11:54:14;;;;;;;21.65;15.23;;;;;;;16.54;69.60;100953.16;4930717;28;119626;-78
2022/06/01 11:57:01;;;;;;;14.73;9.35;;;;;;;16.59;67.35;100948.97;4953403;28;119531;-78
2022/06/01 11:59:27;;;;;;;24.90;13.70;;;;;;;16.65;67.93;100946.25;4946560;28;119734;-78
2022/06/01 12:02:40;;;;;;;21.13;14.57;;;;;;;16.68;68.18;100942.53;4948464;28;119546;-78
2022/06/01 12:05:21;;;;;;;15.43;10.23;;;;;;;16.67;66.97;100949.31;4944624;28;119998;-78